Time;durP1;ratioP1;P1;durP2;ratioP2;P2;SDS_P1;SDS_P2;PMS_P1;PMS_P2;Temp;Humidity;BMP_temperature;BMP_pressure;BME280_temperature;BME280_humidity;BME280_pressure;Samples;Min_cycle;Max_cycle;Signal;HPM_P1;HPM_P2
2022/01/25 00:26:33;;;;;;;22.38;4.78;;;;;;;;;;4919961;29;20067;-30
2022/01/25 00:29:13;;;;;;;15.52;3.20;;;;;;;;;;4919773;29;20032;-30
2022/01/25 00:31:41;;;;;;;15.75;2.92;;;;;;;;;;4919839;29;20032;-31
2022/01/25 00:34:07;;;;;;;15.77;3.33;;;;;;;;;;4920516;29;20463;-31
2022/01/25 00:36:34;;;;;;;11.85;3.15;;;;;;;;;;4919952;29;20172;-30
2022/01/25 00:39:00;;;;;;;9.90;3.30;;;;;;;;;;4919881;29;20024;-30
2022/01/25 00:41:27;;;;;;;11.55;2.90;;;;;;;;;;4919651;29;20024;-30
2022/01/25 00:43:54;;;;;;;14.98;4.15;;;;;;;;;;4919498;29;20110;-30
2022/01/25 00:46:22;;;;;;;18.92;4.38;;;;;;;;;;4919536;29;20038;-30
2022/01/25 00:48:51;;;;;;;17.30;3.67;;;;;;;;;;4919695;29;20527;-30
2022/01/25 00:52:20;;;;;;;20.38;3.15;;;;;;;;;;4919631;29;20364;-31
2022/01/25 00:56:54;;;;;;;18.65;3.42;;;;;;;;;;4919859;29;20096;-30
2022/01/25 00:59:22;;;;;;;14.48;3.58;;;;;;;;;;4918310;29;20032;-30
2022/01/25 01:01:49;;;;;;;17.52;4.88;;;;;;;;;;4918549;29;20036;-31
2022/01/25 01:04:16;;;;;;;13.98;3.35;;;;;;;;;;4919053;29;20048;-32
2022/01/25 01:06:44;;;;;;;14.65;2.67;;;;;;;;;;4919453;29;20095;-31
2022/01/25 01:09:11;;;;;;;12.45;3.88;;;;;;;;;;4919323;29;20055;-31
2022/01/25 01:11:48;;;;;;;16.58;3.08;;;;;;;;;;4919094;29;20055;-30
2022/01/25 01:35:44;;;;;;;15.35;3.33;;;;;;;;;;4919256;29;20042;-30
2022/01/25 01:41:09;;;;;;;12.40;5.70;;;;;;;;;;4918877;29;20140;-31
2022/01/25 01:43:37;;;;;;;9.82;2.80;;;;;;;;;;4918848;29;20048;-31
2022/01/25 01:49:03;;;;;;;20.15;3.30;;;;;;;;;;4918555;29;20055;-30
2022/01/25 01:51:31;;;;;;;17.33;4.90;;;;;;;;;;4918190;29;20059;-31
2022/01/25 01:53:58;;;;;;;23.73;4.93;;;;;;;;;;4918398;29;20048;-31
2022/01/25 01:56:24;;;;;;;19.92;3.20;;;;;;;;;;4918448;29;20036;-30
2022/01/25 01:58:51;;;;;;;21.58;3.33;;;;;;;;;;4918432;29;20377;-31
2022/01/25 02:01:18;;;;;;;12.15;2.90;;;;;;;;;;4918614;29;20029;-30
2022/01/25 02:03:44;;;;;;;12.25;4.60;;;;;;;;;;4918070;29;20055;-30
2022/01/25 02:06:10;;;;;;;12.93;3.58;;;;;;;;;;4918277;29;20063;-30
2022/01/25 02:08:37;;;;;;;9.93;2.72;;;;;;;;;;4917292;29;20024;-30
2022/01/25 02:11:04;;;;;;;11.68;3.08;;;;;;;;;;4918189;29;20046;-30
2022/01/25 02:13:30;;;;;;;14.75;3.45;;;;;;;;;;4917175;29;20080;-31
2022/01/25 02:15:58;;;;;;;16.15;3.78;;;;;;;;;;4917182;29;20342;-30
2022/01/25 02:23:39;;;;;;;11.23;3.08;;;;;;;;;;4918390;29;20047;-30
2022/01/25 02:26:07;;;;;;;9.95;2.97;;;;;;;;;;4920704;29;20060;-30
2022/01/25 02:28:35;;;;;;;20.95;4.88;;;;;;;;;;4922238;29;20040;-30
2022/01/25 02:31:02;;;;;;;14.07;3.28;;;;;;;;;;4922100;29;20040;-30
2022/01/25 02:33:28;;;;;;;9.40;2.72;;;;;;;;;;4921864;29;20163;-30
2022/01/25 02:35:55;;;;;;;20.05;3.90;;;;;;;;;;4921893;29;20024;-31
2022/01/25 02:38:27;;;;;;;12.82;3.28;;;;;;;;;;4920836;29;20035;-30
2022/01/25 02:40:53;;;;;;;10.40;3.38;;;;;;;;;;4922006;29;20040;-30
2022/01/25 02:43:20;;;;;;;13.38;4.15;;;;;;;;;;4921734;29;20138;-30
2022/01/25 02:46:02;;;;;;;10.98;3.10;;;;;;;;;;4922178;29;20060;-30
2022/01/25 02:48:31;;;;;;;19.58;2.97;;;;;;;;;;4921968;29;20040;-30
2022/01/25 02:50:59;;;;;;;9.35;3.55;;;;;;;;;;4921724;29;20348;-30
2022/01/25 02:53:25;;;;;;;21.42;3.35;;;;;;;;;;4921464;29;20424;-30
2022/01/25 02:55:51;;;;;;;12.43;3.28;;;;;;;;;;4921457;29;20040;-30
2022/01/25 02:58:17;;;;;;;10.30;3.33;;;;;;;;;;4921719;29;20486;-30
2022/01/25 03:00:44;;;;;;;9.50;2.67;;;;;;;;;;4921378;29;20039;-30
2022/01/25 03:03:10;;;;;;;6.75;3.13;;;;;;;;;;4921384;29;20172;-30
2022/01/25 03:05:36;;;;;;;12.18;3.17;;;;;;;;;;4921364;29;20036;-30
2022/01/25 03:08:03;;;;;;;11.27;3.05;;;;;;;;;;4921303;29;20035;-30
2022/01/25 03:10:37;;;;;;;8.93;2.95;;;;;;;;;;4921212;29;20040;-31
2022/01/25 03:13:05;;;;;;;14.32;2.80;;;;;;;;;;4921067;29;20141;-30
2022/01/25 03:15:57;;;;;;;9.05;2.72;;;;;;;;;;4921380;29;20416;-30
2022/01/25 03:21:04;;;;;;;12.07;2.63;;;;;;;;;;4921087;29;20036;-30
2022/01/25 03:23:32;;;;;;;10.05;2.65;;;;;;;;;;4921236;29;20040;-29
2022/01/25 03:25:58;;;;;;;10.00;3.80;;;;;;;;;;4921232;29;20031;-30
2022/01/25 03:28:25;;;;;;;8.80;3.53;;;;;;;;;;4920965;29;20056;-30
2022/01/25 03:30:51;;;;;;;21.05;4.28;;;;;;;;;;4921003;29;20040;-30
2022/01/25 03:33:18;;;;;;;16.15;4.22;;;;;;;;;;4920979;29;20388;-30
2022/01/25 03:35:46;;;;;;;13.80;3.17;;;;;;;;;;4921009;29;20024;-30
2022/01/25 03:38:12;;;;;;;10.68;2.90;;;;;;;;;;4920634;29;20052;-30
2022/01/25 03:40:39;;;;;;;11.23;2.85;;;;;;;;;;4919747;29;20031;-30
2022/01/25 03:43:07;;;;;;;10.40;3.45;;;;;;;;;;4919661;29;20035;-30
2022/01/25 03:45:36;;;;;;;12.75;3.08;;;;;;;;;;4920862;29;20091;-30
2022/01/25 03:50:41;;;;;;;7.03;3.17;;;;;;;;;;4921010;29;20119;-30
2022/01/25 03:53:08;;;;;;;13.23;3.50;;;;;;;;;;4920376;29;20091;-30
2022/01/25 03:55:34;;;;;;;10.50;3.25;;;;;;;;;;4920454;29;20024;-30
2022/01/25 03:58:01;;;;;;;12.63;3.88;;;;;;;;;;4919517;29;20067;-31
2022/01/25 04:00:27;;;;;;;15.52;4.00;;;;;;;;;;4920601;29;20036;-30
2022/01/25 04:03:00;;;;;;;8.35;2.78;;;;;;;;;;4920312;29;20048;-30
2022/01/25 04:05:47;;;;;;;8.25;2.42;;;;;;;;;;4920258;29;20038;-30
2022/01/25 04:08:13;;;;;;;10.68;4.25;;;;;;;;;;4920054;29;20115;-31
2022/01/25 04:10:40;;;;;;;8.45;2.63;;;;;;;;;;4920116;29;20111;-30
2022/01/25 04:13:07;;;;;;;13.77;3.75;;;;;;;;;;4920118;29;20029;-30
2022/01/25 04:15:33;;;;;;;8.40;2.65;;;;;;;;;;4920016;29;20032;-30
2022/01/25 04:20:33;;;;;;;9.57;3.10;;;;;;;;;;4920215;29;20075;-30
2022/01/25 04:25:44;;;;;;;19.63;3.97;;;;;;;;;;4920218;29;20102;-30
2022/01/25 04:28:10;;;;;;;5.13;2.33;;;;;;;;;;4920089;29;20032;-30
2022/01/25 04:30:36;;;;;;;10.27;3.28;;;;;;;;;;4919683;29;20092;-31
2022/01/25 04:33:17;;;;;;;5.65;3.47;;;;;;;;;;4919658;29;20056;-30
2022/01/25 04:36:26;;;;;;;9.90;2.88;;;;;;;;;;4919709;29;20032;-30
2022/01/25 04:49:31;;;;;;;7.68;3.30;;;;;;;;;;4918726;29;20063;-31
2022/01/25 04:52:05;;;;;;;8.20;2.97;;;;;;;;;;4919546;29;20384;-31
2022/01/25 05:02:42;;;;;;;5.32;2.85;;;;;;;;;;4918888;29;20127;-31
2022/01/25 05:05:28;;;;;;;6.55;3.03;;;;;;;;;;4919351;29;20385;-30
2022/01/25 05:10:20;;;;;;;5.30;2.80;;;;;;;;;;4918753;29;20389;-31
2022/01/25 05:12:53;;;;;;;7.45;3.05;;;;;;;;;;4918756;29;20123;-31
2022/01/25 05:15:49;;;;;;;8.93;3.10;;;;;;;;;;4919406;29;20044;-30
2022/01/25 05:23:27;;;;;;;8.25;3.78;;;;;;;;;;4918626;29;20180;-30
2022/01/25 05:25:53;;;;;;;13.10;3.78;;;;;;;;;;4918816;29;20058;-30
2022/01/25 05:28:24;;;;;;;9.00;2.85;;;;;;;;;;4918046;29;20368;-31
2022/01/25 05:30:50;;;;;;;8.05;2.58;;;;;;;;;;4917594;29;20123;-30
2022/01/25 05:33:17;;;;;;;11.20;3.03;;;;;;;;;;4918649;29;20042;-31
2022/01/25 05:35:43;;;;;;;15.00;3.28;;;;;;;;;;4918754;29;20444;-31
2022/01/25 05:38:09;;;;;;;8.13;2.55;;;;;;;;;;4918480;29;20048;-31
2022/01/25 05:41:18;;;;;;;9.27;3.72;;;;;;;;;;4918507;29;20372;-31
2022/01/25 05:46:14;;;;;;;8.55;3.00;;;;;;;;;;4918829;29;20558;-30
2022/01/25 05:48:40;;;;;;;9.13;3.10;;;;;;;;;;4918468;29;20132;-30
2022/01/25 05:51:07;;;;;;;11.45;3.95;;;;;;;;;;4918282;29;20028;-30
2022/01/25 05:53:33;;;;;;;15.45;3.90;;;;;;;;;;4918393;29;20025;-30
2022/01/25 05:55:59;;;;;;;8.57;3.88;;;;;;;;;;4918377;29;20028;-30
2022/01/25 05:58:26;;;;;;;5.18;2.72;;;;;;;;;;4918392;29;20444;-31
2022/01/25 06:00:52;;;;;;;8.23;2.85;;;;;;;;;;4917298;29;20038;-30
2022/01/25 06:03:18;;;;;;;15.10;4.07;;;;;;;;;;4917944;29;20486;-31
2022/01/25 06:05:45;;;;;;;8.93;3.25;;;;;;;;;;4918477;29;20039;-30
2022/01/25 06:08:11;;;;;;;8.45;2.70;;;;;;;;;;4918039;29;20036;-30
2022/01/25 06:10:37;;;;;;;13.27;3.03;;;;;;;;;;4917933;29;20337;-30
2022/01/25 06:13:04;;;;;;;7.22;3.08;;;;;;;;;;4918116;29;20095;-31
2022/01/25 06:15:30;;;;;;;9.65;4.13;;;;;;;;;;4917552;29;20071;-31
2022/01/25 06:17:57;;;;;;;8.48;2.92;;;;;;;;;;4916739;29;20028;-30
2022/01/25 06:20:23;;;;;;;16.75;4.03;;;;;;;;;;4918082;29;20035;-31
2022/01/25 06:22:50;;;;;;;12.68;3.67;;;;;;;;;;4917871;29;20464;-31
2022/01/25 06:25:17;;;;;;;7.68;2.85;;;;;;;;;;4918052;29;20100;-32
2022/01/25 06:27:44;;;;;;;11.82;3.33;;;;;;;;;;4918092;29;20032;-31
2022/01/25 06:30:11;;;;;;;11.40;3.25;;;;;;;;;;4917980;29;20476;-30
2022/01/25 06:32:38;;;;;;;13.25;3.42;;;;;;;;;;4917711;29;20038;-31
2022/01/25 06:35:05;;;;;;;8.98;3.05;;;;;;;;;;4917665;29;20042;-30
2022/01/25 06:37:32;;;;;;;10.65;3.53;;;;;;;;;;4917920;29;20112;-31
2022/01/25 06:39:58;;;;;;;19.48;3.15;;;;;;;;;;4917727;29;20065;-31
2022/01/25 06:42:28;;;;;;;13.43;3.70;;;;;;;;;;4917634;29;20038;-31
2022/01/25 06:44:57;;;;;;;18.80;4.28;;;;;;;;;;4917581;29;20032;-32
2022/01/25 06:47:24;;;;;;;13.18;2.90;;;;;;;;;;4917508;29;20024;-31
2022/01/25 06:49:50;;;;;;;8.30;2.85;;;;;;;;;;4916417;29;20054;-32
2022/01/25 06:52:16;;;;;;;19.40;4.15;;;;;;;;;;4917613;29;20448;-32
2022/01/25 06:54:43;;;;;;;14.15;3.28;;;;;;;;;;4918136;29;20325;-31
2022/01/25 06:57:09;;;;;;;9.00;3.15;;;;;;;;;;4917569;29;20068;-31
2022/01/25 06:59:36;;;;;;;8.43;2.95;;;;;;;;;;4917086;29;20047;-31
2022/01/25 07:02:03;;;;;;;6.75;3.30;;;;;;;;;;4916545;29;20040;-31
2022/01/25 07:04:29;;;;;;;7.45;3.45;;;;;;;;;;4917176;29;20118;-31
2022/01/25 07:06:55;;;;;;;12.93;3.88;;;;;;;;;;4917164;29;20036;-31
2022/01/25 07:09:23;;;;;;;8.88;3.40;;;;;;;;;;4917407;29;20333;-30
2022/01/25 07:12:08;;;;;;;13.45;2.97;;;;;;;;;;4918596;29;20397;-32
2022/01/25 07:14:34;;;;;;;13.75;3.35;;;;;;;;;;4920873;29;20081;-31
2022/01/25 07:17:01;;;;;;;6.88;3.60;;;;;;;;;;4920895;29;20043;-32
2022/01/25 07:19:27;;;;;;;13.82;3.55;;;;;;;;;;4920470;29;20040;-32
2022/01/25 07:21:54;;;;;;;14.82;4.15;;;;;;;;;;4920332;29;20028;-30
2022/01/25 07:24:20;;;;;;;22.52;2.95;;;;;;;;;;4920770;29;20343;-33
2022/01/25 07:26:47;;;;;;;14.15;3.95;;;;;;;;;;4919345;29;20028;-30
2022/01/25 07:29:13;;;;;;;8.35;2.95;;;;;;;;;;4919639;29;20335;-30
2022/01/25 07:31:40;;;;;;;6.65;3.17;;;;;;;;;;4920563;29;20031;-32
2022/01/25 07:34:06;;;;;;;12.68;4.47;;;;;;;;;;4920314;29;20036;-31
2022/01/25 07:36:34;;;;;;;10.32;3.83;;;;;;;;;;4920375;29;20111;-30
2022/01/25 07:39:01;;;;;;;14.15;3.60;;;;;;;;;;4920336;29;20087;-30
2022/01/25 07:41:27;;;;;;;8.55;3.78;;;;;;;;;;4920399;29;20028;-30
2022/01/25 07:43:53;;;;;;;11.13;3.53;;;;;;;;;;4920216;29;20424;-31
2022/01/25 07:46:19;;;;;;;12.30;3.72;;;;;;;;;;4920510;29;20032;-30
2022/01/25 07:48:45;;;;;;;7.72;3.88;;;;;;;;;;4920239;29;20336;-30
2022/01/25 07:51:12;;;;;;;12.85;4.10;;;;;;;;;;4919890;29;20024;-30
2022/01/25 07:53:39;;;;;;;8.63;3.47;;;;;;;;;;4919856;29;20032;-29
2022/01/25 07:56:05;;;;;;;15.38;3.55;;;;;;;;;;4919993;29;20111;-31
2022/01/25 07:58:31;;;;;;;13.57;3.92;;;;;;;;;;4918784;29;20063;-33
2022/01/25 08:00:58;;;;;;;14.75;4.63;;;;;;;;;;4919741;29;20100;-31
2022/01/25 08:03:24;;;;;;;7.88;4.22;;;;;;;;;;4919434;29;20475;-31
2022/01/25 08:05:50;;;;;;;10.60;4.45;;;;;;;;;;4919647;29;20028;-31
2022/01/25 08:11:45;;;;;;;9.45;3.75;;;;;;;;;;4919958;29;20531;-30
2022/01/25 08:14:13;;;;;;;10.68;5.20;;;;;;;;;;4919773;29;20028;-32
2022/01/25 08:16:40;;;;;;;8.00;3.35;;;;;;;;;;4919846;29;20460;-31
2022/01/25 08:19:06;;;;;;;7.18;3.88;;;;;;;;;;4919845;29;20035;-31
2022/01/25 08:21:33;;;;;;;12.32;3.70;;;;;;;;;;4919784;29;20040;-31
2022/01/25 08:23:59;;;;;;;10.43;3.35;;;;;;;;;;4918499;29;20036;-30
2022/01/25 08:26:25;;;;;;;11.13;4.18;;;;;;;;;;4919477;29;20032;-32
2022/01/25 08:28:52;;;;;;;15.00;3.42;;;;;;;;;;4919320;29;20067;-31
2022/01/25 08:31:20;;;;;;;16.50;4.30;;;;;;;;;;4919484;29;20057;-32
2022/01/25 08:33:46;;;;;;;9.88;3.45;;;;;;;;;;4919416;29;20044;-31
2022/01/25 08:36:13;;;;;;;11.60;3.50;;;;;;;;;;4919335;29;20024;-32
2022/01/25 08:38:39;;;;;;;11.00;4.05;;;;;;;;;;4919133;29;20075;-31
2022/01/25 08:41:06;;;;;;;17.13;4.07;;;;;;;;;;4919476;29;20047;-32
2022/01/25 08:43:33;;;;;;;11.93;4.13;;;;;;;;;;4919114;29;20024;-31
2022/01/25 08:46:01;;;;;;;8.88;3.33;;;;;;;;;;4919284;29;20107;-31
2022/01/25 08:48:27;;;;;;;11.00;3.88;;;;;;;;;;4919158;29;20032;-32
2022/01/25 08:50:54;;;;;;;15.02;4.22;;;;;;;;;;4918983;29;20046;-33
2022/01/25 08:53:20;;;;;;;11.43;4.22;;;;;;;;;;4919232;29;20495;-29
2022/01/25 08:55:47;;;;;;;15.90;4.47;;;;;;;;;;4919001;29;20028;-32
2022/01/25 08:58:13;;;;;;;15.07;3.53;;;;;;;;;;4918781;29;20032;-30
2022/01/25 09:00:40;;;;;;;12.43;4.07;;;;;;;;;;4919085;29;20364;-29
2022/01/25 09:03:06;;;;;;;9.73;4.07;;;;;;;;;;4918532;29;20071;-30
2022/01/25 09:05:33;;;;;;;9.70;4.32;;;;;;;;;;4919232;29;20356;-29
2022/01/25 09:08:01;;;;;;;7.00;3.90;;;;;;;;;;4918760;29;20028;-31
2022/01/25 09:10:28;;;;;;;17.33;4.47;;;;;;;;;;4918901;29;20036;-32
2022/01/25 09:12:57;;;;;;;22.60;4.35;;;;;;;;;;4918872;29;20047;-31
2022/01/25 09:15:39;;;;;;;12.00;4.50;;;;;;;;;;4918634;29;20021;-31
2022/01/25 09:18:10;;;;;;;11.98;4.07;;;;;;;;;;4917881;29;20464;-32
2022/01/25 09:20:41;;;;;;;17.42;5.45;;;;;;;;;;4918347;29;20046;-32
2022/01/25 09:23:15;;;;;;;15.48;4.20;;;;;;;;;;4918411;29;20087;-29
2022/01/25 09:25:42;;;;;;;12.10;4.75;;;;;;;;;;4918480;29;20024;-31
2022/01/25 09:28:09;;;;;;;12.43;4.10;;;;;;;;;;4917240;29;20059;-33
2022/01/25 09:30:35;;;;;;;16.63;4.78;;;;;;;;;;4918261;29;20356;-29
2022/01/25 09:33:01;;;;;;;23.27;4.75;;;;;;;;;;4918256;29;20407;-31
2022/01/25 09:35:28;;;;;;;11.85;4.38;;;;;;;;;;4917110;29;20048;-31
2022/01/25 09:37:54;;;;;;;11.32;5.32;;;;;;;;;;4918480;29;20033;-31
2022/01/25 09:40:21;;;;;;;14.07;4.60;;;;;;;;;;4918364;29;20048;-31
2022/01/25 09:42:54;;;;;;;12.77;4.43;;;;;;;;;;4917956;29;20043;-31
2022/01/25 09:45:21;;;;;;;13.02;4.63;;;;;;;;;;4918506;29;20092;-31
2022/01/25 09:47:48;;;;;;;13.15;4.22;;;;;;;;;;4918339;29;20036;-31
2022/01/25 09:50:15;;;;;;;17.27;4.28;;;;;;;;;;4917977;29;20032;-31
2022/01/25 09:52:44;;;;;;;25.45;4.93;;;;;;;;;;4917817;29;20111;-32
2022/01/25 09:55:12;;;;;;;17.52;4.70;;;;;;;;;;4916986;29;20020;-31
2022/01/25 09:57:39;;;;;;;20.83;6.10;;;;;;;;;;4917916;29;20032;-32
2022/01/25 10:00:08;;;;;;;12.77;4.32;;;;;;;;;;4917994;29;20079;-31
2022/01/25 10:02:45;;;;;;;16.15;4.72;;;;;;;;;;4916513;29;20044;-30
2022/01/25 10:05:26;;;;;;;19.85;6.55;;;;;;;;;;4918384;29;20099;-32
2022/01/25 10:08:05;;;;;;;18.48;5.18;;;;;;;;;;4917757;29;20047;-31
2022/01/25 10:10:32;;;;;;;15.40;4.93;;;;;;;;;;4917733;29;20108;-30
2022/01/25 10:13:10;;;;;;;17.48;4.53;;;;;;;;;;4917968;29;20020;-30
2022/01/25 10:15:37;;;;;;;18.38;5.60;;;;;;;;;;4917911;29;20512;-31
2022/01/25 10:18:06;;;;;;;28.40;7.10;;;;;;;;;;4917960;29;20032;-32
2022/01/25 10:20:35;;;;;;;18.23;5.35;;;;;;;;;;4918060;29;20362;-31
2022/01/25 10:23:05;;;;;;;27.23;5.93;;;;;;;;;;4916564;29;20036;-31
2022/01/25 10:25:35;;;;;;;24.73;6.40;;;;;;;;;;4918219;29;20522;-31
2022/01/25 10:28:03;;;;;;;19.13;5.28;;;;;;;;;;4917805;29;20464;-30
2022/01/25 10:30:36;;;;;;;21.90;5.97;;;;;;;;;;4917427;29;20051;-31
2022/01/25 10:33:03;;;;;;;12.88;4.82;;;;;;;;;;4916569;29;20028;-31
2022/01/25 10:35:30;;;;;;;11.65;4.45;;;;;;;;;;4917525;29;20028;-31
2022/01/25 10:37:56;;;;;;;26.58;4.93;;;;;;;;;;4917555;29;20032;-31
2022/01/25 10:40:38;;;;;;;9.00;4.90;;;;;;;;;;4900822;29;20063;-31
2022/01/25 10:43:06;;;;;;;22.83;5.55;;;;;;;;;;4917338;29;20056;-31
2022/01/25 10:45:32;;;;;;;18.85;6.07;;;;;;;;;;4917364;29;20040;-32
2022/01/25 10:47:59;;;;;;;18.15;4.55;;;;;;;;;;4921043;29;20464;-31
2022/01/25 10:50:39;;;;;;;15.60;5.35;;;;;;;;;;4921031;29;20090;-31
2022/01/25 10:53:09;;;;;;;19.23;5.65;;;;;;;;;;4920833;29;20039;-31
2022/01/25 10:55:40;;;;;;;18.45;5.32;;;;;;;;;;4921237;29;20036;-30
2022/01/25 10:58:07;;;;;;;18.05;5.43;;;;;;;;;;4921139;29;20090;-31
2022/01/25 11:00:34;;;;;;;21.25;7.03;;;;;;;;;;4920884;29;20051;-31
2022/01/25 11:03:02;;;;;;;33.83;6.55;;;;;;;;;;4920600;29;20105;-30
2022/01/25 11:05:31;;;;;;;16.38;6.13;;;;;;;;;;4921026;29;20043;-30
2022/01/25 11:07:57;;;;;;;21.67;6.07;;;;;;;;;;4921024;29;20050;-31
2022/01/25 11:10:23;;;;;;;15.98;4.70;;;;;;;;;;4920707;29;20040;-30
2022/01/25 11:13:22;;;;;;;17.27;5.35;;;;;;;;;;4920667;29;20024;-30
2022/01/25 11:15:40;;;;;;;11.47;4.97;;;;;;;;;;4920485;29;20099;-31
2022/01/25 11:18:06;;;;;;;12.57;4.57;;;;;;;;;;4920918;29;20028;-31
2022/01/25 11:20:34;;;;;;;21.88;5.65;;;;;;;;;;4919611;29;20046;-31
2022/01/25 11:23:02;;;;;;;22.13;5.60;;;;;;;;;;4920397;29;20100;-31
2022/01/25 11:25:28;;;;;;;23.50;4.13;;;;;;;;;;4903839;29;20028;-31
2022/01/25 11:27:57;;;;;;;15.50;5.25;;;;;;;;;;4920285;29;20028;-31
2022/01/25 11:30:23;;;;;;;13.30;5.40;;;;;;;;;;4920136;29;20047;-32
2022/01/25 11:32:50;;;;;;;14.95;5.35;;;;;;;;;;4920479;29;20377;-31
2022/01/25 11:35:20;;;;;;;13.02;4.47;;;;;;;;;;4920781;29;20024;-31
2022/01/25 11:37:47;;;;;;;15.35;5.63;;;;;;;;;;4920478;29;20047;-30
2022/01/25 11:40:21;;;;;;;13.73;4.63;;;;;;;;;;4920292;29;20040;-30
2022/01/25 11:42:48;;;;;;;19.20;6.38;;;;;;;;;;4920306;29;20024;-31
2022/01/25 11:45:15;;;;;;;10.63;4.32;;;;;;;;;;4920116;29;20032;-30
2022/01/25 11:47:41;;;;;;;18.30;5.43;;;;;;;;;;4920068;29;20099;-31
2022/01/25 11:50:10;;;;;;;18.55;5.57;;;;;;;;;;4920016;29;20039;-32
2022/01/25 11:52:39;;;;;;;17.58;4.93;;;;;;;;;;4919143;29;20324;-32
2022/01/25 11:55:21;;;;;;;20.55;6.40;;;;;;;;;;4920026;29;20029;-31
2022/01/25 11:57:49;;;;;;;24.52;5.30;;;;;;;;;;4920674;29;20127;-30
2022/01/25 12:00:15;;;;;;;26.42;7.97;;;;;;;;;;4919852;29;20032;-31
2022/01/25 12:02:43;;;;;;;24.88;5.50;;;;;;;;;;4919545;29;20119;-31
2022/01/25 12:05:10;;;;;;;22.90;8.85;;;;;;;;;;4919763;29;20070;-32
2022/01/25 12:07:42;;;;;;;17.15;5.97;;;;;;;;;;4918821;29;20036;-30
2022/01/25 12:10:39;;;;;;;21.67;5.80;;;;;;;;;;4919922;29;20376;-32
2022/01/25 12:13:12;;;;;;;17.92;4.30;;;;;;;;;;4911657;29;20064;-31
2022/01/25 12:15:39;;;;;;;14.60;5.50;;;;;;;;;;4919744;29;20125;-31
2022/01/25 12:18:08;;;;;;;12.05;5.85;;;;;;;;;;4919871;29;20107;-40
2022/01/25 12:20:46;;;;;;;27.80;5.93;;;;;;;;;;4919467;29;20103;-31
2022/01/25 12:23:19;;;;;;;15.15;5.03;;;;;;;;;;4918358;29;20044;-31
2022/01/25 12:25:53;;;;;;;28.40;7.88;;;;;;;;;;4919275;29;20098;-32
2022/01/25 12:28:30;;;;;;;18.70;6.25;;;;;;;;;;4919858;29;20054;-30
2022/01/25 12:31:00;;;;;;;23.85;6.88;;;;;;;;;;4919402;29;20059;-31
2022/01/25 12:33:30;;;;;;;17.95;4.63;;;;;;;;;;4919110;29;20054;-31
2022/01/25 12:36:08;;;;;;;16.87;5.33;;;;;;;;;;4919216;29;20028;-30
2022/01/25 12:38:49;;;;;;;20.42;5.25;;;;;;;;;;4919337;29;20036;-31
2022/01/25 12:41:17;;;;;;;15.63;5.28;;;;;;;;;;4918966;29;20127;-30
2022/01/25 12:43:44;;;;;;;22.77;6.18;;;;;;;;;;4917794;29;20036;-32
2022/01/25 12:46:13;;;;;;;16.65;5.43;;;;;;;;;;4919084;29;20079;-31
2022/01/25 12:48:42;;;;;;;13.00;6.00;;;;;;;;;;4919092;29;20450;-31
2022/01/25 12:51:09;;;;;;;24.98;6.65;;;;;;;;;;4918933;29;20024;-31
2022/01/25 12:53:37;;;;;;;18.30;6.40;;;;;;;;;;4918831;29;20102;-31
2022/01/25 12:56:06;;;;;;;23.65;5.97;;;;;;;;;;4918862;29;20028;-31
2022/01/25 12:58:34;;;;;;;14.05;4.68;;;;;;;;;;4919030;29;20097;-31
2022/01/25 13:01:04;;;;;;;18.52;4.65;;;;;;;;;;4918996;29;20460;-30
2022/01/25 13:03:41;;;;;;;16.17;7.18;;;;;;;;;;4918627;29;20043;-30
2022/01/25 13:06:10;;;;;;;29.23;7.38;;;;;;;;;;4917454;29;20040;-30
2022/01/25 13:08:45;;;;;;;15.23;7.63;;;;;;;;;;4918335;29;20024;-31
2022/01/25 13:11:24;;;;;;;25.40;6.93;;;;;;;;;;4918454;29;20050;-31
2022/01/25 13:14:04;;;;;;;18.92;6.18;;;;;;;;;;4919319;29;20160;-31
2022/01/25 13:16:37;;;;;;;19.75;6.53;;;;;;;;;;4918589;29;20043;-30
2022/01/25 13:19:04;;;;;;;18.92;5.45;;;;;;;;;;4918823;29;20028;-29
2022/01/25 13:21:37;;;;;;;23.63;5.93;;;;;;;;;;4901811;29;20059;-31
2022/01/25 13:24:07;;;;;;;23.27;5.80;;;;;;;;;;4917372;29;20047;-31
2022/01/25 13:26:39;;;;;;;23.25;5.40;;;;;;;;;;4918298;29;20028;-31
2022/01/25 13:30:39;;;;;;;13.20;5.93;;;;;;;;;;4918334;29;20032;-30
2022/01/25 13:32:16;;;;;;;15.93;6.95;;;;;;;;;;4918148;29;20083;-32
2022/01/25 13:34:43;;;;;;;26.23;6.68;;;;;;;;;;4917001;29;20184;-30
2022/01/25 13:37:24;;;;;;;20.05;5.50;;;;;;;;;;4917935;29;20046;-31
2022/01/25 13:39:58;;;;;;;20.42;7.45;;;;;;;;;;4917376;29;20085;-30
2022/01/25 13:42:30;;;;;;;14.52;6.32;;;;;;;;;;4917823;29;20032;-30
2022/01/25 13:48:04;;;;;;;24.52;8.57;;;;;;;;;;4917953;29;20039;-30
2022/01/25 13:50:31;;;;;;;24.88;7.63;;;;;;;;;;4917923;29;20456;-32
2022/01/25 13:52:57;;;;;;;20.90;6.32;;;;;;;;;;4916891;29;20432;-31
2022/01/25 13:55:23;;;;;;;22.55;7.32;;;;;;;;;;4917605;29;20442;-31
2022/01/25 13:57:49;;;;;;;23.05;5.85;;;;;;;;;;4917921;29;20024;-30
2022/01/25 14:00:17;;;;;;;33.17;7.85;;;;;;;;;;4917834;29;20356;-31
2022/01/25 14:02:47;;;;;;;25.48;5.88;;;;;;;;;;4917629;29;20046;-31
2022/01/25 14:05:13;;;;;;;24.63;6.75;;;;;;;;;;4918028;29;20032;-30
2022/01/25 14:07:39;;;;;;;28.60;7.32;;;;;;;;;;4917730;29;20389;-32
2022/01/25 14:10:18;;;;;;;25.92;6.00;;;;;;;;;;4917904;29;20036;-30
2022/01/25 14:23:45;;;;;;;23.63;6.68;;;;;;;;;;4921488;29;20055;-31
2022/01/25 14:26:12;;;;;;;16.58;6.38;;;;;;;;;;4920620;29;20040;-30
2022/01/25 14:28:45;;;;;;;25.08;7.10;;;;;;;;;;4921485;29;20032;-31
2022/01/25 14:31:17;;;;;;;28.05;5.55;;;;;;;;;;4921734;29;20051;-30
2022/01/25 14:33:42;;;;;;;;;;;;;;;;;;4920747;29;20027;-31
2022/01/25 14:36:12;;;;;;;29.40;6.30;;;;;;;;;;4921013;29;19926;-31
2022/01/25 14:38:39;;;;;;;31.88;6.68;;;;;;;;;;4921416;29;20032;-30
2022/01/25 14:41:11;;;;;;;32.00;6.50;;;;;;;;;;4921549;29;20184;-30
2022/01/25 14:43:48;;;;;;;22.80;6.75;;;;;;;;;;4921158;29;20119;-31
2022/01/25 14:46:17;;;;;;;23.48;6.50;;;;;;;;;;4921353;29;20107;-31
2022/01/25 14:48:45;;;;;;;27.80;6.07;;;;;;;;;;4921172;29;20470;-32
2022/01/25 14:51:12;;;;;;;22.38;6.68;;;;;;;;;;4921693;29;20039;-31
2022/01/25 14:53:39;;;;;;;25.42;6.88;;;;;;;;;;4920962;29;20043;-31
2022/01/25 14:56:06;;;;;;;21.48;5.80;;;;;;;;;;4920911;29;20032;-31
2022/01/25 15:01:18;;;;;;;22.23;7.28;;;;;;;;;;4921275;29;20138;-31
2022/01/25 15:03:45;;;;;;;17.88;6.65;;;;;;;;;;4920824;29;20059;-30
2022/01/25 15:06:14;;;;;;;44.20;7.78;;;;;;;;;;4921114;29;20060;-30
2022/01/25 15:08:47;;;;;;;30.38;5.68;;;;;;;;;;4921042;29;20062;-32
2022/01/25 15:11:14;;;;;;;31.25;6.68;;;;;;;;;;4921238;29;20040;-31
2022/01/25 15:13:40;;;;;;;14.43;5.60;;;;;;;;;;4919873;29;20036;-31
2022/01/25 15:16:06;;;;;;;24.33;5.65;;;;;;;;;;4921027;29;20028;-31
2022/01/25 15:18:38;;;;;;;21.48;8.18;;;;;;;;;;4919582;29;20095;-32
2022/01/25 15:21:05;;;;;;;19.13;6.63;;;;;;;;;;4920958;29;20043;-31
2022/01/25 15:23:33;;;;;;;22.35;5.75;;;;;;;;;;4920624;29;20091;-32
2022/01/25 15:26:01;;;;;;;20.05;5.55;;;;;;;;;;4921000;29;20043;-32
2022/01/25 15:28:37;;;;;;;21.63;5.65;;;;;;;;;;4920550;29;20141;-30
2022/01/25 15:31:04;;;;;;;16.23;6.00;;;;;;;;;;4920891;29;20059;-32
2022/01/25 15:33:30;;;;;;;22.17;6.55;;;;;;;;;;4920137;29;20034;-30
2022/01/25 15:35:56;;;;;;;26.33;6.63;;;;;;;;;;4920734;29;20053;-31
2022/01/25 15:38:22;;;;;;;21.10;6.57;;;;;;;;;;4920796;29;20111;-32
2022/01/25 15:40:48;;;;;;;20.23;6.05;;;;;;;;;;4919720;29;20506;-31
2022/01/25 15:43:21;;;;;;;21.70;7.93;;;;;;;;;;4920320;29;20083;-32
2022/01/25 15:46:03;;;;;;;17.58;5.55;;;;;;;;;;4920329;29;20087;-31
2022/01/25 15:48:30;;;;;;;21.35;5.75;;;;;;;;;;4920600;29;20035;-31
2022/01/25 15:50:56;;;;;;;28.70;5.65;;;;;;;;;;4920138;29;20477;-31
2022/01/25 15:53:23;;;;;;;42.30;7.68;;;;;;;;;;4919984;29;20064;-30
2022/01/25 15:55:49;;;;;;;22.67;6.63;;;;;;;;;;4920039;29;20451;-31
2022/01/25 15:58:16;;;;;;;27.92;6.20;;;;;;;;;;4920075;29;20027;-32
2022/01/25 16:00:48;;;;;;;22.15;6.13;;;;;;;;;;4920051;29;20032;-31
2022/01/25 16:03:16;;;;;;;22.63;8.13;;;;;;;;;;4919923;29;20058;-32
2022/01/25 16:05:42;;;;;;;23.45;6.47;;;;;;;;;;4920164;29;20036;-32
2022/01/25 16:08:09;;;;;;;27.48;7.22;;;;;;;;;;4920564;29;20043;-31
2022/01/25 16:10:37;;;;;;;28.45;6.72;;;;;;;;;;4919694;29;20036;-32
2022/01/25 16:13:04;;;;;;;24.80;7.68;;;;;;;;;;4919826;29;20032;-30
2022/01/25 16:15:30;;;;;;;40.08;9.55;;;;;;;;;;4919829;29;20516;-32
2022/01/25 16:17:56;;;;;;;18.98;6.03;;;;;;;;;;4919704;29;20032;-30
2022/01/25 16:20:23;;;;;;;20.52;7.70;;;;;;;;;;4919671;29;20028;-30
2022/01/25 16:22:49;;;;;;;20.52;6.30;;;;;;;;;;4919467;29;20032;-30
2022/01/25 16:25:15;;;;;;;20.70;6.38;;;;;;;;;;4918437;29;20115;-32
2022/01/25 16:27:42;;;;;;;29.63;6.03;;;;;;;;;;4919304;29;20047;-31
2022/01/25 16:30:08;;;;;;;29.10;6.97;;;;;;;;;;4919350;29;20362;-31
2022/01/25 16:32:36;;;;;;;20.05;8.02;;;;;;;;;;4918263;29;20367;-31
2022/01/25 16:35:04;;;;;;;29.52;6.65;;;;;;;;;;4919610;29;20028;-31
2022/01/25 16:37:31;;;;;;;21.25;7.07;;;;;;;;;;4919269;29;20451;-30
2022/01/25 16:39:57;;;;;;;35.90;6.45;;;;;;;;;;4919471;29;20032;-30
2022/01/25 16:42:24;;;;;;;36.00;6.93;;;;;;;;;;4918342;29;20420;-30
2022/01/25 16:44:52;;;;;;;18.92;5.65;;;;;;;;;;4917235;29;20452;-31